To NAV CANADA Home Page Login to a new session Search on AWWS site Feedback and Comments Disclaimer Vers la page française équivalente Tips FAQ What's new on the site To the Forecasts and Observations / NOTAM section To "File a Flight Plan" website Publications and other links Update of the User's profile FIC Telephone Numbers My Weather Data Folder Route Weather Data Regional Weather Data Local Weather Data To the Forecasts and Observations / NOTAM section
Request Generated 05/25/2017 at 01:02:53 UTC . Weather information available at that time is displayed.

METAR/TAF

If you find any discrepancies between the coded METAR/TAF and the plain language METAR/TAF please use the coded METAR/TAF. LWIS bulletins are not decoded in plain language.

TORONTO/LESTER B. PEARSON INTL/ON    

METAR CYYZ 250100Z 09012G18KT 15SM -RA OVC075 19/10 A2962 RMK AC8 SLP032 DENSITY ALT 1400FT=
METAR
LOCATION
CYYZ - TORONTO/LESTER B. PEARSON INTL/ON
DATE - TIME
25 MAY 2017 - 0100 UTC
WIND
90 TRUE @ 12  KNOTS
GUSTS
18 KNOTS
VISIBILITY
15 STAT.  MILES
RUNWAY VISUAL RANGE
WEATHER
LIGHT RAIN
CLOUDINESS
OVERCAST 7500  FT
TEMP / DEWPOINT
19 C / 10 C
ALTIMETER
29.62 IN HG
RECENT WEATHER
WIND SHEAR

METAR CYYZ 250000Z 08014G21KT 15SM -RA BKN100 OVC140 20/09 A2961 RMK AC5AC3 SLP028 DENSITY ALT 1500FT=
METAR
LOCATION
CYYZ - TORONTO/LESTER B. PEARSON INTL/ON
DATE - TIME
25 MAY 2017 - 0000 UTC
WIND
80 TRUE @ 14  KNOTS
GUSTS
21 KNOTS
VISIBILITY
15 STAT.  MILES
RUNWAY VISUAL RANGE
WEATHER
LIGHT RAIN
CLOUDINESS
BROKEN CLOUDS (5/8 - 7/8) 10000  FT
OVERCAST 14000  FT
TEMP / DEWPOINT
20 C / 9 C
ALTIMETER
29.61 IN HG
RECENT WEATHER
WIND SHEAR

METAR CYYZ 242300Z 08010G16KT 15SM SCT100 BKN130 OVC230 20/08 A2962 RMK AC3AC3CI2 SLP031 DENSITY ALT 1600FT=
METAR
LOCATION
CYYZ - TORONTO/LESTER B. PEARSON INTL/ON
DATE - TIME
24 MAY 2017 - 2300 UTC
WIND
80 TRUE @ 10  KNOTS
GUSTS
16 KNOTS
VISIBILITY
15 STAT.  MILES
RUNWAY VISUAL RANGE
WEATHER
CLOUDINESS
SCATTERED CLOUDS (3/8 - 4/8) 10000  FT
BROKEN CLOUDS (5/8 - 7/8) 13000  FT
OVERCAST 23000  FT
TEMP / DEWPOINT
20 C / 8 C
ALTIMETER
29.62 IN HG
RECENT WEATHER
WIND SHEAR

TAF CYYZ 242338Z 2500/2606 09012KT P6SM SCT080 OVC150 TEMPO 2500/2502 P6SM -SHRA OVC080 FM250200 09010KT P6SM -SHRA OVC060 FM250600 07008KT P6SM -RA FEW015 OVC030 TEMPO 2506/2509 4SM -RA BR BKN015 OVC030 FM250900 08012KT 4SM -RA BR SCT006 OVC012 PROB30 2509/2511 OVC006 FM251100 08015G25KT 3SM -RA BR OVC006 PROB40 2511/2518 OVC003 FM260400 01010KT 6SM -DZ BR OVC008 RMK NXT FCST BY 250300Z=
TAF
LOCATION

CYYZ - TORONTO/LESTER B. PEARSON INTL/ON
VALIDITY [UTC]
24 MAY - 2338 to
26 MAY - 0600
 
TIMES
[UTC]
WIND
[DEGREES TRUE]
VISIBILITY
[STAT. MILES]
WEATHER
CLOUDINESS
[FEET AGL]
 
25 MAY - 0000 to
25 MAY - 0200
90 @ 12 KNOTS
6+
NIL
8000 SCATTERED
15000 OVERCAST
TEMPORARY CHANGES
25 MAY - 0000 to
25 MAY - 0200
 
6+
LIGHT RAIN SHOWER
8000 OVERCAST
 
25 MAY - 0200 to
25 MAY - 0600
90 @ 10 KNOTS
6+
LIGHT RAIN SHOWER
6000 OVERCAST
 
25 MAY - 0600 to
25 MAY - 0900
70 @ 8 KNOTS
6+
LIGHT RAIN
1500 FEW
3000 FEW
3000 OVERCAST
TEMPORARY CHANGES
25 MAY - 0600 to
25 MAY - 0900
 
4
LIGHT RAIN
MIST
1500 BROKEN
3000 OVERCAST
 
25 MAY - 0900 to
25 MAY - 1100
80 @ 12 KNOTS
4
LIGHT RAIN
MIST
600 SCATTERED
1200 OVERCAST
30% PROBABILITY
25 MAY - 0900 to
25 MAY - 1100
 
 
 
600 OVERCAST
 
25 MAY - 1100 to
26 MAY - 0400
80 @ 15 KNOTS
GUSTS 25 KNOTS
3
LIGHT RAIN
MIST
600 OVERCAST
40% PROBABILITY
25 MAY - 1100 to
25 MAY - 1800
 
 
 
300 OVERCAST
 
26 MAY - 0400 to
26 MAY - 0600
10 @ 10 KNOTS
6
LIGHT DRIZZLE
MIST
800 OVERCAST
REMARKS
THE NEXT FORECAST WILL BE ISSUED BY 0300 UTC ON DAY 25


Your time UTC time
Weather data provided by Environment Canada and NAV CANADA